createdAt,value
2024-01-15T06:00:58.553Z,82.62
2024-01-15T06:01:58.574Z,82.72
2024-01-15T06:02:58.390Z,82.97
2024-01-15T06:03:58.485Z,82.76
2024-01-15T06:04:58.475Z,82.97
2024-01-15T06:05:58.437Z,82.62
2024-01-15T06:06:58.441Z,83.07
2024-01-15T06:07:58.347Z,82.86
2024-01-15T06:08:58.326Z,82.65
2024-01-15T06:09:58.410Z,82.55
2024-01-15T06:11:01.027Z,83.07
2024-01-15T06:12:03.314Z,83.07
2024-01-15T06:12:58.300Z,82.86
2024-01-15T06:13:58.279Z,82.93
2024-01-15T06:14:58.268Z,82.93
2024-01-15T06:15:58.292Z,82.62
2024-01-15T06:16:58.253Z,82.62
2024-01-15T06:17:58.315Z,82.93
2024-01-15T06:18:58.520Z,82.62
2024-01-15T06:19:58.388Z,82.72
2024-01-15T06:20:58.204Z,82.72
2024-01-15T06:21:58.313Z,82.82
2024-01-15T06:23:03.207Z,82.72
2024-01-15T06:23:58.166Z,82.51
2024-01-15T06:24:58.156Z,82.62
2024-01-15T06:25:58.137Z,82.62
2024-01-15T06:26:58.125Z,82.79
2024-01-15T06:27:58.171Z,81.78
2024-01-15T06:28:58.118Z,81.85
2024-01-15T06:29:58.091Z,82.16
2024-01-15T06:30:58.209Z,82.37
2024-01-15T06:31:58.124Z,82.16
2024-01-15T06:32:58.150Z,82.37
2024-01-15T06:34:03.217Z,81.53
2024-01-15T06:34:58.042Z,82.06
2024-01-15T06:35:58.027Z,82.26
2024-01-15T06:36:58.099Z,81.63
2024-01-15T06:37:58.023Z,82.06
2024-01-15T06:38:58.017Z,81.92
2024-01-15T06:39:58.051Z,81.92
2024-01-15T06:40:57.976Z,81.92
2024-01-15T06:41:57.985Z,81.18
2024-01-15T06:42:58.016Z,81.81
2024-01-15T06:43:57.962Z,82.02
2024-01-15T06:45:02.990Z,82.02
2024-01-15T06:45:58.031Z,82.12
2024-01-15T06:46:57.922Z,82.33
2024-01-15T06:47:57.936Z,81.81
2024-01-15T06:48:58.033Z,81.92
2024-01-15T06:49:58.027Z,82.23
2024-01-15T06:50:57.870Z,82.02
2024-01-15T06:51:58.025Z,82.02
2024-01-15T06:52:57.849Z,81.92
2024-01-15T06:53:57.859Z,81.92
2024-01-15T06:54:57.855Z,81.92
2024-01-15T06:56:02.856Z,82.23
2024-01-15T06:56:57.813Z,81.67
2024-01-15T06:57:57.828Z,81.87
2024-01-15T06:58:57.813Z,81.70
2024-01-15T06:59:57.776Z,81.60
2024-01-15T07:00:57.899Z,82.23
2024-01-15T07:01:57.824Z,82.12
2024-01-15T07:02:57.823Z,82.02
2024-01-15T07:03:57.922Z,82.33
2024-01-15T07:04:57.798Z,82.02
2024-01-15T07:05:57.744Z,82.12
2024-01-15T07:07:02.736Z,81.81
2024-01-15T07:07:57.687Z,81.70
2024-01-15T07:08:57.678Z,81.70
2024-01-15T07:09:57.688Z,82.02
2024-01-15T07:10:57.767Z,81.92
2024-01-15T07:11:57.646Z,82.12
2024-01-15T07:12:57.719Z,81.81
2024-01-15T07:13:57.638Z,81.92
2024-01-15T07:14:57.643Z,81.92
2024-01-15T07:15:57.754Z,82.02
2024-01-15T07:16:57.591Z,82.12
2024-01-15T07:18:02.725Z,81.92
2024-01-15T07:18:57.600Z,81.70
2024-01-15T07:19:57.593Z,82.29
2024-01-15T07:20:57.577Z,82.02
2024-01-15T07:21:57.757Z,82.43
2024-01-15T07:22:57.527Z,81.98
2024-01-15T07:23:57.512Z,82.43
2024-01-15T07:24:57.598Z,82.33
2024-01-15T07:25:57.487Z,82.33
2024-01-15T07:26:57.491Z,81.92
2024-01-15T07:27:57.478Z,82.43
2024-01-15T07:29:02.548Z,81.49
2024-01-15T07:30:00.137Z,82.02
2024-01-15T07:30:57.587Z,82.54
2024-01-15T07:31:57.460Z,82.54
2024-01-15T07:32:57.500Z,82.33
2024-01-15T07:33:57.646Z,82.54
2024-01-15T07:34:57.598Z,82.75
2024-01-15T07:35:58.869Z,82.86
2024-01-15T07:36:57.406Z,82.75
2024-01-15T07:37:57.368Z,82.86
2024-01-15T07:38:57.378Z,82.86
2024-01-15T07:40:02.614Z,82.65
2024-01-15T07:40:57.375Z,82.75
2024-01-15T07:41:57.313Z,82.86
2024-01-15T07:42:57.324Z,82.54
2024-01-15T07:43:57.309Z,82.75
2024-01-15T07:44:57.313Z,82.86
2024-01-15T07:45:57.336Z,82.71
2024-01-15T07:46:57.264Z,82.54
2024-01-15T07:47:57.323Z,82.54
2024-01-15T07:48:57.504Z,82.75
2024-01-15T07:49:58.953Z,82.86
2024-01-15T07:51:02.284Z,82.75
2024-01-15T07:51:57.239Z,82.43
2024-01-15T07:52:57.236Z,82.43
2024-01-15T07:53:57.196Z,82.86
2024-01-15T07:54:57.271Z,82.33
2024-01-15T07:55:57.176Z,82.33
2024-01-15T07:56:57.193Z,81.87
2024-01-15T07:58:03.129Z,82.33
2024-01-15T07:58:58.129Z,82.12
2024-01-15T07:59:57.134Z,82.96
2024-01-15T08:00:57.286Z,83.06
2024-01-15T08:02:02.209Z,83.27
2024-01-15T08:02:57.120Z,83.48
2024-01-15T08:03:57.197Z,83.38
2024-01-15T08:04:57.082Z,83.44
2024-01-15T08:05:57.083Z,83.48
2024-01-15T08:06:57.094Z,83.80
2024-01-15T08:07:59.265Z,83.80
2024-01-15T08:08:57.063Z,83.90
2024-01-15T08:09:57.045Z,84.11
2024-01-15T08:10:57.039Z,83.80
2024-01-15T08:11:57.000Z,84.11
2024-01-15T08:13:02.039Z,83.80
2024-01-15T08:13:56.969Z,83.90
2024-01-15T08:14:56.958Z,83.90
2024-01-15T08:15:57.006Z,83.80
2024-01-15T08:16:56.951Z,83.34
2024-01-15T08:17:56.977Z,83.44
2024-01-15T08:18:57.020Z,83.59
2024-01-15T08:19:56.940Z,83.76
2024-01-15T08:20:57.015Z,83.90
2024-01-15T08:21:56.910Z,83.90
2024-01-15T08:22:56.874Z,83.44
2024-01-15T08:24:01.896Z,83.44
2024-01-15T08:24:56.870Z,83.76
2024-01-15T08:25:56.896Z,83.34
2024-01-15T08:26:56.839Z,83.34
2024-01-15T08:27:56.823Z,83.76
2024-01-15T08:28:56.805Z,83.97
2024-01-15T08:29:56.788Z,83.65
2024-01-15T08:30:56.951Z,83.86
2024-01-15T08:31:57.091Z,83.55
2024-01-15T08:32:58.418Z,83.34
2024-01-15T08:33:56.956Z,83.97
2024-01-15T08:35:01.954Z,83.34
2024-01-15T08:35:56.757Z,83.97
2024-01-15T08:36:56.732Z,83.86
2024-01-15T08:37:56.732Z,83.44
2024-01-15T08:38:56.696Z,83.65
2024-01-15T08:39:56.748Z,83.44
2024-01-15T08:40:56.692Z,83.44
2024-01-15T08:41:57.742Z,83.76
2024-01-15T08:42:56.682Z,83.76
2024-01-15T08:43:56.648Z,83.72
2024-01-15T08:44:56.635Z,83.40
2024-01-15T08:46:01.685Z,83.83
2024-01-15T08:46:56.623Z,83.62
2024-01-15T08:47:56.651Z,83.09
2024-01-15T08:48:56.735Z,83.44
2024-01-15T08:49:56.619Z,83.13
2024-01-15T08:50:56.584Z,82.89
2024-01-15T08:51:56.564Z,82.89
2024-01-15T08:52:56.550Z,83.34
2024-01-15T08:53:56.563Z,82.99
2024-01-15T08:54:56.553Z,83.20
2024-01-15T08:55:56.585Z,82.78
2024-01-15T08:57:01.517Z,82.15
2024-01-15T08:57:56.576Z,82.89
2024-01-15T08:58:56.541Z,82.78
2024-01-15T08:59:56.521Z,82.05
2024-01-15T09:00:56.605Z,82.26
2024-01-15T09:01:56.447Z,82.57
2024-01-15T09:02:56.447Z,82.89
2024-01-15T09:03:56.473Z,82.26
2024-01-15T09:04:56.511Z,82.46
2024-01-15T09:05:56.542Z,82.57
2024-01-15T09:06:56.436Z,82.67
2024-01-15T09:08:01.398Z,82.67
2024-01-15T09:08:56.371Z,82.43
2024-01-15T09:09:56.392Z,82.74
2024-01-15T09:10:56.356Z,82.43
2024-01-15T09:11:56.388Z,82.64
2024-01-15T09:12:56.362Z,82.53
2024-01-15T09:13:56.336Z,82.74
2024-01-15T09:14:56.299Z,82.64
2024-01-15T09:15:56.487Z,82.74
2024-01-15T09:16:56.275Z,82.74
2024-01-15T09:17:56.316Z,82.39
2024-01-15T09:19:01.425Z,82.64
2024-01-15T09:19:56.367Z,82.70
2024-01-15T09:20:56.237Z,82.53
2024-01-15T09:21:56.255Z,82.53
2024-01-15T09:22:56.233Z,82.50
2024-01-15T09:23:56.262Z,82.60
2024-01-15T09:24:56.299Z,82.74
2024-01-15T09:25:56.189Z,82.39
2024-01-15T09:26:56.206Z,82.84
2024-01-15T09:27:56.294Z,82.50
2024-01-15T09:28:56.148Z,82.70
2024-01-15T09:30:01.171Z,82.39
2024-01-15T09:30:56.239Z,82.81
2024-01-15T09:31:56.297Z,83.33
2024-01-15T09:32:56.173Z,82.70
2024-01-15T09:33:56.134Z,83.68
2024-01-15T09:34:56.081Z,83.64
2024-01-15T09:35:56.067Z,83.75
2024-01-15T09:36:56.091Z,83.85
2024-01-15T09:37:56.075Z,83.85
2024-01-15T09:38:56.036Z,83.54
2024-01-15T09:39:56.063Z,84.06
2024-01-15T09:41:01.038Z,83.64
2024-01-15T09:41:56.007Z,83.75
2024-01-15T09:42:56.121Z,83.64
2024-01-15T09:43:56.001Z,83.85
2024-01-15T09:44:55.975Z,84.06
2024-01-15T09:45:56.028Z,84.06
2024-01-15T09:46:55.961Z,83.85
2024-01-15T09:47:55.993Z,84.17
2024-01-15T09:48:55.961Z,84.06
2024-01-15T09:49:55.974Z,84.17
2024-01-15T09:50:55.906Z,84.17
2024-01-15T09:52:08.841Z,83.92
2024-01-15T09:52:55.894Z,83.92
2024-01-15T09:53:55.907Z,83.92
2024-01-15T09:54:55.947Z,85.00
2024-01-15T09:55:55.845Z,84.34
2024-01-15T09:56:55.870Z,85.17
2024-01-15T09:57:55.967Z,85.59
2024-01-15T09:58:55.847Z,85.17
2024-01-15T09:59:55.854Z,85.69
2024-01-15T10:00:55.915Z,85.90
2024-01-15T10:01:55.879Z,85.49
2024-01-15T10:03:00.819Z,85.69
2024-01-15T10:03:55.862Z,85.69
2024-01-15T10:04:55.792Z,85.49
2024-01-15T10:05:55.801Z,85.59
2024-01-15T10:06:55.825Z,86.43
2024-01-15T10:07:55.728Z,86.32
2024-01-15T10:08:55.738Z,86.84
2024-01-15T10:09:55.798Z,86.63
2024-01-15T10:10:55.698Z,87.47
2024-01-15T10:11:55.674Z,87.15
2024-01-15T10:12:55.880Z,87.37
2024-01-15T10:14:00.705Z,87.05
2024-01-15T10:14:55.653Z,86.84
2024-01-15T10:15:55.777Z,87.26
2024-01-15T10:16:55.660Z,86.53
2024-01-15T10:17:55.697Z,87.26
2024-01-15T10:18:55.688Z,87.05
2024-01-15T10:19:55.624Z,87.26
2024-01-15T10:20:55.576Z,87.32
2024-01-15T10:21:55.668Z,86.94
2024-01-15T10:22:55.569Z,87.15
2024-01-15T10:23:55.568Z,87.15
2024-01-15T10:25:00.727Z,87.15
2024-01-15T10:25:55.522Z,87.15
2024-01-15T10:26:55.518Z,87.26
2024-01-15T10:27:55.608Z,87.37
2024-01-15T10:28:55.500Z,87.26
2024-01-15T10:29:55.505Z,86.49
2024-01-15T10:30:55.614Z,86.74
2024-01-15T10:31:55.655Z,86.74
2024-01-15T10:32:55.482Z,86.91
2024-01-15T10:33:55.525Z,86.80
2024-01-15T10:34:55.608Z,86.84
2024-01-15T10:36:00.473Z,86.80
2024-01-15T10:36:55.507Z,87.01
2024-01-15T10:37:55.400Z,86.91
2024-01-15T10:38:55.394Z,86.91
2024-01-15T10:39:55.385Z,86.91
2024-01-15T10:40:55.379Z,86.80
2024-01-15T10:41:55.351Z,86.80
2024-01-15T10:42:55.414Z,86.18
2024-01-15T10:43:55.337Z,86.59
2024-01-15T10:44:55.318Z,86.49
2024-01-15T10:45:55.445Z,86.49
2024-01-15T10:47:00.340Z,85.97
2024-01-15T10:47:55.399Z,85.86
2024-01-15T10:48:55.395Z,86.38
2024-01-15T10:49:55.339Z,85.55
2024-01-15T10:50:55.248Z,85.55
2024-01-15T10:51:55.304Z,85.55
2024-01-15T10:52:55.257Z,85.76
2024-01-15T10:53:55.239Z,85.76
2024-01-15T10:54:55.266Z,85.41
2024-01-15T10:55:55.228Z,85.65
2024-01-15T10:56:55.194Z,85.30
2024-01-15T10:58:00.320Z,85.44
2024-01-15T10:58:58.014Z,85.51
2024-01-15T10:59:55.157Z,85.55
2024-01-15T11:00:55.235Z,85.72
2024-01-15T11:01:55.901Z,85.61
2024-01-15T11:02:55.207Z,85.61
2024-01-15T11:03:55.198Z,85.61
2024-01-15T11:04:55.253Z,85.20
2024-01-15T11:05:55.127Z,84.72
2024-01-15T11:06:55.959Z,85.20
2024-01-15T11:07:55.079Z,85.41
2024-01-15T11:09:00.080Z,85.65
2024-01-15T11:09:55.162Z,85.20
2024-01-15T11:10:55.045Z,85.41
2024-01-15T11:11:55.043Z,85.51
2024-01-15T11:12:55.084Z,85.61
2024-01-15T11:13:55.021Z,84.99
2024-01-15T11:14:55.001Z,85.51
2024-01-15T11:15:55.066Z,85.20
2024-01-15T11:16:54.989Z,85.10
2024-01-15T11:17:55.028Z,85.41
2024-01-15T11:18:55.041Z,85.65
2024-01-15T11:20:00.046Z,85.55
2024-01-15T11:20:54.951Z,85.34
2024-01-15T11:21:55.071Z,85.24
2024-01-15T11:22:54.909Z,86.07
2024-01-15T11:23:55.303Z,85.34
2024-01-15T11:24:54.981Z,85.86
2024-01-15T11:25:54.890Z,86.38
2024-01-15T11:26:54.911Z,86.49
2024-01-15T11:27:55.272Z,86.91
2024-01-15T11:28:54.864Z,87.01
2024-01-15T11:29:54.827Z,87.12
2024-01-15T11:30:59.957Z,87.32
2024-01-15T11:31:54.919Z,87.01
2024-01-15T11:32:54.990Z,87.01
2024-01-15T11:33:54.942Z,86.80
2024-01-15T11:34:55.016Z,87.32
2024-01-15T11:35:54.785Z,86.59
2024-01-15T11:36:54.882Z,87.01
2024-01-15T11:37:54.742Z,87.53
2024-01-15T11:38:54.734Z,87.22
2024-01-15T11:39:55.448Z,87.53
2024-01-15T11:40:54.720Z,87.70
2024-01-15T11:41:59.731Z,87.49
2024-01-15T11:42:54.732Z,87.28
2024-01-15T11:43:54.736Z,87.07
2024-01-15T11:44:54.671Z,87.01
2024-01-15T11:45:54.758Z,87.39
2024-01-15T11:46:54.648Z,86.97
2024-01-15T11:47:54.657Z,86.97
2024-01-15T11:48:54.705Z,86.97
2024-01-15T11:49:54.711Z,87.07
2024-01-15T11:50:54.644Z,86.97
2024-01-15T11:51:54.736Z,86.55
2024-01-15T11:53:00.907Z,86.97
2024-01-15T11:53:54.580Z,86.97
2024-01-15T11:54:54.661Z,86.66
2024-01-15T11:55:54.559Z,86.76
2024-01-15T11:56:54.533Z,86.66
2024-01-15T11:57:54.564Z,86.20
2024-01-15T11:58:54.537Z,86.76
2024-01-15T11:59:54.505Z,85.47
2024-01-15T12:00:54.896Z,85.58
2024-01-15T12:01:54.532Z,84.57
2024-01-15T12:02:54.489Z,83.95
2024-01-15T12:03:59.645Z,83.91
2024-01-15T12:04:54.469Z,84.22
2024-01-15T12:05:54.656Z,84.01
2024-01-15T12:06:54.557Z,83.49
2024-01-15T12:07:54.445Z,83.49
2024-01-15T12:08:54.426Z,84.12
2024-01-15T12:09:54.435Z,83.80
2024-01-15T12:10:54.469Z,83.91
2024-01-15T12:11:54.426Z,83.59
2024-01-15T12:12:54.481Z,83.39
2024-01-15T12:13:54.728Z,83.18
2024-01-15T12:14:59.377Z,83.07
2024-01-15T12:15:54.425Z,83.28
2024-01-15T12:16:54.340Z,82.93
2024-01-15T12:17:54.467Z,81.62
2024-01-15T12:18:54.520Z,82.51
2024-01-15T12:19:54.391Z,82.20
2024-01-15T12:20:54.365Z,82.20
2024-01-15T12:21:54.388Z,82.10
2024-01-15T12:23:01.240Z,82.20
2024-01-15T12:23:55.236Z,82.51
2024-01-15T12:24:54.337Z,82.10
2024-01-15T12:25:59.264Z,81.99
2024-01-15T12:26:54.278Z,81.89
2024-01-15T12:27:54.218Z,82.10
2024-01-15T12:28:56.925Z,82.03
2024-01-15T12:29:54.211Z,81.99
2024-01-15T12:30:54.203Z,81.62
2024-01-15T12:31:54.229Z,81.62
2024-01-15T12:32:54.189Z,81.89
2024-01-15T12:33:54.245Z,81.62
2024-01-15T12:34:54.142Z,81.58
2024-01-15T12:35:54.113Z,81.16
2024-01-15T12:36:59.128Z,81.79
2024-01-15T12:37:54.119Z,81.26
2024-01-15T12:38:54.101Z,81.23
2024-01-15T12:39:54.119Z,80.85
2024-01-15T12:40:54.050Z,80.95
2024-01-15T12:41:54.071Z,81.16
2024-01-15T12:42:54.114Z,80.85
2024-01-15T12:43:54.056Z,80.81
2024-01-15T12:44:54.008Z,80.95
2024-01-15T12:45:54.073Z,80.95
2024-01-15T12:46:54.008Z,80.29
2024-01-15T12:47:59.181Z,80.02
2024-01-15T12:48:54.068Z,79.80
2024-01-15T12:49:54.497Z,80.02
2024-01-15T12:50:53.953Z,80.54
2024-01-15T12:51:53.974Z,80.12
2024-01-15T12:52:53.959Z,79.87
2024-01-15T12:53:53.943Z,79.77
2024-01-15T12:54:53.993Z,79.66
2024-01-15T12:55:53.899Z,79.49
2024-01-15T12:56:53.921Z,79.87
2024-01-15T12:57:54.053Z,79.56
2024-01-15T12:58:58.939Z,79.46
2024-01-15T12:59:53.884Z,79.46
2024-01-15T13:00:54.022Z,79.87
2024-01-15T13:01:53.971Z,79.46
2024-01-15T13:02:53.841Z,79.70
2024-01-15T13:03:53.951Z,79.25
2024-01-15T13:04:53.989Z,79.35
2024-01-15T13:05:53.956Z,79.77
2024-01-15T13:06:53.944Z,79.14
2024-01-15T13:07:53.769Z,79.42
2024-01-15T13:08:53.754Z,79.25
2024-01-15T13:09:58.892Z,78.83
2024-01-15T13:10:53.747Z,78.73
2024-01-15T13:11:53.728Z,78.42
2024-01-15T13:12:53.734Z,78.63
2024-01-15T13:13:53.706Z,78.94
2024-01-15T13:14:53.753Z,79.04
2024-01-15T13:15:53.713Z,78.59
2024-01-15T13:16:53.689Z,78.49
2024-01-15T13:17:53.688Z,78.28
2024-01-15T13:18:53.832Z,78.69
2024-01-15T13:19:53.703Z,78.07
2024-01-15T13:20:58.633Z,77.96
2024-01-15T13:21:53.725Z,77.75
2024-01-15T13:22:53.601Z,77.96
2024-01-15T13:23:53.599Z,77.34
2024-01-15T13:24:53.626Z,78.07
2024-01-15T13:25:53.580Z,77.75
2024-01-15T13:26:53.555Z,77.86
2024-01-15T13:27:53.581Z,78.17
2024-01-15T13:28:53.547Z,77.75
2024-01-15T13:29:53.532Z,77.75
2024-01-15T13:30:53.725Z,77.55
2024-01-15T13:31:58.552Z,77.86
2024-01-15T13:32:53.585Z,78.17
2024-01-15T13:33:53.577Z,78.10
2024-01-15T13:34:53.657Z,77.86
2024-01-15T13:35:53.598Z,77.86
2024-01-15T13:36:53.461Z,77.44
2024-01-15T13:37:53.424Z,77.55
2024-01-15T13:38:53.424Z,77.55
2024-01-15T13:39:53.449Z,77.65
2024-01-15T13:40:53.404Z,77.75
2024-01-15T13:41:53.393Z,77.75
2024-01-15T13:42:58.534Z,77.13
2024-01-15T13:43:53.360Z,77.23
2024-01-15T13:44:53.356Z,77.44
2024-01-15T13:45:53.402Z,77.34
2024-01-15T13:46:53.351Z,77.55
2024-01-15T13:47:53.377Z,77.44
2024-01-15T13:48:53.406Z,76.99
2024-01-15T13:49:53.285Z,76.61
2024-01-15T13:50:53.273Z,76.47
2024-01-15T13:51:53.347Z,75.95
2024-01-15T13:52:53.275Z,76.26
2024-01-15T13:53:58.294Z,76.68
2024-01-15T13:54:53.250Z,76.37
2024-01-15T13:55:53.230Z,76.09
2024-01-15T13:56:53.203Z,75.98
2024-01-15T13:57:53.278Z,76.47
2024-01-15T13:58:53.223Z,76.37
2024-01-15T13:59:53.180Z,76.47
2024-01-15T14:00:53.226Z,76.37
2024-01-15T14:01:53.156Z,76.37
2024-01-15T14:02:53.173Z,76.26
2024-01-15T14:03:53.248Z,75.74
2024-01-15T14:04:58.209Z,76.37
2024-01-15T14:05:53.106Z,76.26
2024-01-15T14:06:53.106Z,75.95
2024-01-15T14:07:53.100Z,76.47
2024-01-15T14:08:53.085Z,76.37
2024-01-15T14:09:53.256Z,76.47
2024-01-15T14:10:53.056Z,76.47
2024-01-15T14:11:53.059Z,76.37
2024-01-15T14:12:53.101Z,76.16
2024-01-15T14:13:53.045Z,76.16
2024-01-15T14:14:53.077Z,76.16
2024-01-15T14:15:58.149Z,75.64
2024-01-15T14:16:53.052Z,76.26
2024-01-15T14:17:53.042Z,76.06
2024-01-15T14:18:53.202Z,75.95
2024-01-15T14:19:54.717Z,75.95
2024-01-15T14:20:52.955Z,75.74
2024-01-15T14:21:53.078Z,75.85
2024-01-15T14:22:52.966Z,75.43
2024-01-15T14:23:52.943Z,75.40
2024-01-15T14:24:53.027Z,75.81
2024-01-15T14:25:52.913Z,75.50
2024-01-15T14:26:57.912Z,75.60
2024-01-15T14:27:52.941Z,75.60
2024-01-15T14:28:52.853Z,75.40
2024-01-15T14:29:52.907Z,75.60
2024-01-15T14:30:53.074Z,75.43
2024-01-15T14:31:52.944Z,75.85
2024-01-15T14:32:52.898Z,75.71
2024-01-15T14:33:53.057Z,75.64
2024-01-15T14:34:52.956Z,76.16
2024-01-15T14:35:52.774Z,75.64
2024-01-15T14:36:52.842Z,75.40
2024-01-15T14:37:57.817Z,75.74
2024-01-15T14:38:52.763Z,75.50
2024-01-15T14:39:52.758Z,75.64
2024-01-15T14:40:52.719Z,75.95
2024-01-15T14:41:52.851Z,75.05
2024-01-15T14:42:52.733Z,75.67
2024-01-15T14:43:52.696Z,75.43
2024-01-15T14:44:52.685Z,75.67
2024-01-15T14:45:52.707Z,74.43
2024-01-15T14:46:52.686Z,74.43
2024-01-15T14:47:52.674Z,74.95
2024-01-15T14:48:57.695Z,75.64
2024-01-15T14:49:52.652Z,75.46
2024-01-15T14:50:52.612Z,75.26
2024-01-15T14:51:52.618Z,76.16
2024-01-15T14:52:52.590Z,76.37
2024-01-15T14:53:52.564Z,76.06
2024-01-15T14:54:52.596Z,75.32
2024-01-15T14:55:52.583Z,75.32
2024-01-15T14:56:52.557Z,75.64
2024-01-15T14:57:52.563Z,75.64
2024-01-15T14:58:52.516Z,75.12
2024-01-15T14:59:57.534Z,74.43
2024-01-15T15:00:52.586Z,74.43
2024-01-15T15:01:52.652Z,74.53
2024-01-15T15:02:52.477Z,74.39
2024-01-15T15:03:52.590Z,74.29
2024-01-15T15:04:52.511Z,74.18
2024-01-15T15:05:52.509Z,75.12
2024-01-15T15:06:52.552Z,74.29
2024-01-15T15:07:52.425Z,74.49
2024-01-15T15:08:54.737Z,74.39
2024-01-15T15:09:52.488Z,74.39
2024-01-15T15:10:57.491Z,73.56
2024-01-15T15:11:52.380Z,73.56
2024-01-15T15:12:52.367Z,73.03
2024-01-15T15:13:52.380Z,73.66
2024-01-15T15:15:00.111Z,73.56
2024-01-15T15:15:52.333Z,73.21
2024-01-15T15:16:52.315Z,73.14
2024-01-15T15:17:52.416Z,73.21
2024-01-15T15:18:52.473Z,73.14
2024-01-15T15:19:52.473Z,72.31
2024-01-15T15:20:53.866Z,72.49
2024-01-15T15:21:57.324Z,72.62
2024-01-15T15:22:52.251Z,72.31
2024-01-15T15:23:52.254Z,71.97
2024-01-15T15:24:52.349Z,72.49
2024-01-15T15:25:52.242Z,72.28
2024-01-15T15:26:53.285Z,72.00
2024-01-15T15:27:52.265Z,72.52
2024-01-15T15:28:52.222Z,72.10
2024-01-15T15:29:52.413Z,72.00
2024-01-15T15:30:52.205Z,72.00
2024-01-15T15:31:52.158Z,71.89
2024-01-15T15:32:58.733Z,72.20
2024-01-15T15:33:52.243Z,72.20
2024-01-15T15:34:52.322Z,72.45
2024-01-15T15:35:52.149Z,71.92
2024-01-15T15:36:52.145Z,72.10
2024-01-15T15:37:52.084Z,72.45
2024-01-15T15:38:53.526Z,72.03
2024-01-15T15:39:52.116Z,72.13
2024-01-15T15:40:52.059Z,72.00
2024-01-15T15:41:52.068Z,71.92
2024-01-15T15:42:52.112Z,72.10
2024-01-15T15:43:57.119Z,72.00
2024-01-15T15:44:52.969Z,72.34
2024-01-15T15:45:52.123Z,72.13
2024-01-15T15:46:52.020Z,72.66
2024-01-15T15:47:52.067Z,72.34
2024-01-15T15:48:52.085Z,72.66
2024-01-15T15:49:52.105Z,72.24
2024-01-15T15:50:52.018Z,72.24
2024-01-15T15:51:51.957Z,71.92
2024-01-15T15:52:51.932Z,71.92
2024-01-15T15:53:51.908Z,71.92
2024-01-15T15:54:56.940Z,72.24
2024-01-15T15:55:51.880Z,71.92
2024-01-15T15:56:52.532Z,71.41
2024-01-15T15:57:51.896Z,71.41
2024-01-15T15:58:51.854Z,71.61
2024-01-15T15:59:51.835Z,71.51
2024-01-15T16:00:51.857Z,71.92
2024-01-15T16:01:51.884Z,72.13
2024-01-15T16:02:51.825Z,72.13
2024-01-15T16:03:51.882Z,72.03
2024-01-15T16:04:51.851Z,72.27
2024-01-15T16:05:56.803Z,72.45
2024-01-15T16:06:51.942Z,72.45
2024-01-15T16:07:51.744Z,72.38
2024-01-15T16:08:51.766Z,72.48
2024-01-15T16:09:51.785Z,72.17
2024-01-15T16:10:51.714Z,71.86
2024-01-15T16:11:51.719Z,72.06
2024-01-15T16:12:51.739Z,71.75
2024-01-15T16:13:51.684Z,71.44
2024-01-15T16:14:51.694Z,71.44
2024-01-15T16:15:51.827Z,71.12
2024-01-15T16:23:13.317Z,71.23
2024-01-15T16:23:17.651Z,71.54
2024-01-15T16:23:22.597Z,71.44
2024-01-15T16:23:27.678Z,70.74
2024-01-15T16:23:33.184Z,71.16
2024-01-15T16:23:38.538Z,70.81
2024-01-15T16:23:44.278Z,71.54
2024-01-15T16:24:11.897Z,71.12
2024-01-15T16:24:54.265Z,70.92
2024-01-15T16:25:51.941Z,70.43
2024-01-15T16:26:51.808Z,70.53
2024-01-15T16:27:56.659Z,70.43
2024-01-15T16:28:51.594Z,70.53
2024-01-15T16:29:51.520Z,70.95
2024-01-15T16:30:52.750Z,70.95
2024-01-15T16:31:51.557Z,71.58
2024-01-15T16:32:51.572Z,71.68
2024-01-15T16:33:55.486Z,71.99
2024-01-15T16:34:51.543Z,72.09
2024-01-15T16:35:51.550Z,72.30
2024-01-15T16:36:51.456Z,72.51
2024-01-15T16:37:51.450Z,72.41
2024-01-15T16:38:56.433Z,72.30
2024-01-15T16:39:51.436Z,71.99
2024-01-15T16:40:51.397Z,71.99
2024-01-15T16:41:51.370Z,72.30
2024-01-15T16:42:51.363Z,72.24
2024-01-15T16:43:51.348Z,72.62
2024-01-15T16:44:51.384Z,72.75
2024-01-15T16:45:51.387Z,72.51
2024-01-15T16:46:51.315Z,73.90
2024-01-15T16:47:51.366Z,73.45
2024-01-15T16:48:51.388Z,73.66
2024-01-15T16:49:56.696Z,73.90
2024-01-15T16:50:51.308Z,73.59
2024-01-15T16:51:51.488Z,74.42
2024-01-15T16:52:51.290Z,75.05
2024-01-15T16:53:51.276Z,73.90
2024-01-15T16:54:51.267Z,74.11
2024-01-15T16:55:51.299Z,74.11
2024-01-15T16:56:51.228Z,74.52
2024-01-15T16:57:51.216Z,74.63
2024-01-15T16:58:51.262Z,74.42
2024-01-15T16:59:51.199Z,74.74
2024-01-15T17:00:56.199Z,74.95
2024-01-15T17:01:51.164Z,75.26
2024-01-15T17:02:51.250Z,75.05
2024-01-15T17:03:51.230Z,75.15
2024-01-15T17:04:51.143Z,74.84
2024-01-15T17:05:51.176Z,74.95
2024-01-15T17:06:51.107Z,76.09
2024-01-15T17:07:51.099Z,75.15
2024-01-15T17:08:51.108Z,74.52
2024-01-15T17:09:51.117Z,74.42
2024-01-15T17:10:51.057Z,74.77
2024-01-15T17:11:56.075Z,74.95
2024-01-15T17:12:51.062Z,74.42
2024-01-15T17:13:51.041Z,74.42
2024-01-15T17:14:51.027Z,74.63
2024-01-15T17:15:51.043Z,74.63
2024-01-15T17:16:50.985Z,75.15
2024-01-15T17:17:51.160Z,74.52
2024-01-15T17:18:51.070Z,74.52
2024-01-15T17:19:50.957Z,73.90
2024-01-15T17:20:50.980Z,74.01
2024-01-15T17:21:51.010Z,73.38
2024-01-15T17:22:56.074Z,72.55
2024-01-15T17:23:50.923Z,72.65
2024-01-15T17:24:50.976Z,72.75
2024-01-15T17:25:51.087Z,72.96
2024-01-15T17:26:50.890Z,72.41
2024-01-15T17:27:51.237Z,72.75
2024-01-15T17:28:50.861Z,72.41
2024-01-15T17:29:50.859Z,72.20
2024-01-15T17:30:50.862Z,72.44
2024-01-15T17:31:50.857Z,72.30
2024-01-15T17:32:51.016Z,72.09
2024-01-15T17:33:57.748Z,71.68
2024-01-15T17:34:50.801Z,71.47
2024-01-15T17:35:50.817Z,70.84
2024-01-15T17:36:50.823Z,70.95
2024-01-15T17:37:50.777Z,70.12
2024-01-15T17:38:50.750Z,70.22
2024-01-15T17:39:50.784Z,70.43
2024-01-15T17:40:50.772Z,70.32
2024-01-15T17:41:50.734Z,70.32
2024-01-15T17:42:50.706Z,69.59
2024-01-15T17:43:50.693Z,69.46
2024-01-15T17:44:55.716Z,69.98
2024-01-15T17:45:50.741Z,69.87
2024-01-15T17:46:50.694Z,69.87
2024-01-15T17:47:50.992Z,69.91
2024-01-15T17:48:50.742Z,69.87
2024-01-15T17:49:50.790Z,69.56
2024-01-15T17:50:50.653Z,70.40
2024-01-15T17:51:50.689Z,70.29
2024-01-15T17:52:50.661Z,69.98
2024-01-15T17:53:50.886Z,70.09
2024-01-15T17:54:50.597Z,70.61
2024-01-15T17:55:55.664Z,70.40
2024-01-15T17:56:50.568Z,70.50
2024-01-15T17:57:50.603Z,70.81
2024-01-15T17:58:50.617Z,70.92
2024-01-15T17:59:50.552Z,70.92
2024-01-15T18:00:50.589Z,71.54
2024-01-15T18:01:50.508Z,71.44
2024-01-15T18:02:50.520Z,71.33
2024-01-15T18:03:50.551Z,71.44
2024-01-15T18:04:50.550Z,71.54
2024-01-15T18:05:50.513Z,71.54
2024-01-15T18:06:55.530Z,72.41
2024-01-15T18:07:50.469Z,72.62
2024-01-15T18:08:50.456Z,72.20
2024-01-15T18:09:50.438Z,72.30
2024-01-15T18:10:50.431Z,72.20
2024-01-15T18:11:50.425Z,72.51
2024-01-15T18:12:50.396Z,72.41
2024-01-15T18:13:50.419Z,72.20
2024-01-15T18:14:50.499Z,72.30
2024-01-15T18:15:50.347Z,71.99
2024-01-15T18:16:50.573Z,71.99
2024-01-15T18:17:55.646Z,72.51
2024-01-15T18:18:50.402Z,73.00
2024-01-15T18:19:50.323Z,72.72
2024-01-15T18:20:50.381Z,72.72
2024-01-15T18:21:50.277Z,72.72
2024-01-15T18:22:51.602Z,73.14
2024-01-15T18:23:50.294Z,73.76
2024-01-15T18:24:50.254Z,73.55
2024-01-15T18:25:50.256Z,73.45
2024-01-15T18:26:51.714Z,73.90
2024-01-15T18:27:50.334Z,73.90
2024-01-15T18:28:55.421Z,73.66
2024-01-15T18:29:50.239Z,73.86
2024-01-15T18:30:50.241Z,74.52
2024-01-15T18:31:50.232Z,74.42
2024-01-15T18:32:50.311Z,74.11
2024-01-15T18:33:50.418Z,74.11
2024-01-15T18:34:50.255Z,74.42
2024-01-15T18:35:50.181Z,74.21
2024-01-15T18:36:50.195Z,74.11
2024-01-15T18:37:50.193Z,74.52
2024-01-15T18:38:50.110Z,74.56
2024-01-15T18:39:55.185Z,74.52
2024-01-15T18:40:50.201Z,74.21
2024-01-15T18:41:50.218Z,74.11
2024-01-15T18:42:50.082Z,73.90
2024-01-15T18:43:50.076Z,74.56
2024-01-15T18:44:50.063Z,74.56
2024-01-15T18:45:50.032Z,74.52
2024-01-15T18:46:50.048Z,74.52
2024-01-15T18:47:50.221Z,74.46
2024-01-15T18:48:50.078Z,74.21
2024-01-15T18:49:50.007Z,74.35
2024-01-15T18:50:55.023Z,74.66
2024-01-15T18:51:53.397Z,74.56
2024-01-15T18:52:49.954Z,74.66